Time;durP1;ratioP1;P1;durP2;ratioP2;P2;SDS_P1;SDS_P2;PMS_P1;PMS_P2;Temp;Humidity;BMP_temperature;BMP_pressure;BME280_temperature;BME280_humidity;BME280_pressure;Samples;Min_cycle;Max_cycle;Signal;HPM_P1;HPM_P2
2023/02/28 00:00:46;;;;;;;;;37.50;34.75;;;;;3.08;71.96;102235.03;5081986;27;45550;-79
2023/02/28 00:03:11;;;;;;;;;40.00;36.00;;;;;2.99;72.82;102236.41;5094377;27;46522;-80
2023/02/28 00:05:36;;;;;;;;;39.25;33.50;;;;;2.92;73.45;102227.16;5102224;27;45360;-80
2023/02/28 00:08:02;;;;;;;;;38.50;37.25;;;;;2.86;73.74;102237.09;5090988;27;45365;-80
2023/02/28 00:10:30;;;;;;;;;40.75;36.50;;;;;2.86;74.98;102242.34;5100794;27;45550;-81
2023/02/28 00:12:59;;;;;;;;;39.75;36.50;;;;;2.76;74.47;102228.03;5090124;27;45413;-80
2023/02/28 00:15:25;;;;;;;;;36.00;32.75;;;;;2.72;75.35;102235.22;5101723;27;45321;-80
2023/02/28 00:17:50;;;;;;;;;37.50;34.50;;;;;2.68;75.78;102235.47;5100929;27;45354;-81
2023/02/28 00:20:16;;;;;;;;;38.75;35.00;;;;;2.68;76.70;102241.59;5101898;27;45559;-80
2023/02/28 00:22:47;;;;;;;;;33.50;32.75;;;;;2.61;76.97;102237.59;5102493;27;45584;-80
2023/02/28 00:25:15;;;;;;;;;33.00;32.50;;;;;2.64;76.26;102246.16;5100639;27;45265;-81
2023/02/28 00:27:41;;;;;;;;;42.75;34.50;;;;;2.62;77.27;102239.28;5102303;27;45436;-81
2023/02/28 00:30:10;;;;;;;;;35.25;33.00;;;;;2.65;77.77;102247.84;5102122;27;45367;-80
2023/02/28 00:32:35;;;;;;;;;30.75;29.50;;;;;2.59;77.00;102234.22;5101764;27;46489;-81
2023/02/28 00:35:01;;;;;;;;;24.25;24.00;;;;;2.59;77.45;102242.09;5100636;27;45231;-80
2023/02/28 00:37:27;;;;;;;;;32.50;31.00;;;;;2.51;78.08;102239.88;5102367;27;45416;-80
2023/02/28 00:39:52;;;;;;;;;33.00;30.75;;;;;2.49;77.08;102244.38;5095265;27;45559;-80
2023/02/28 00:42:17;;;;;;;;;33.50;32.50;;;;;2.45;77.21;102245.47;5094001;27;46341;-81
2023/02/28 00:44:43;;;;;;;;;29.50;27.00;;;;;2.49;77.51;102249.63;5100792;27;45330;-81
2023/02/28 00:47:08;;;;;;;;;31.75;28.00;;;;;2.42;78.33;102246.47;5102091;27;45411;-81
2023/02/28 00:49:33;;;;;;;;;28.75;28.00;;;;;2.41;78.99;102250.03;5101587;27;45355;-81
2023/02/28 00:51:59;;;;;;;;;29.75;27.00;;;;;2.39;78.90;102242.25;5100773;27;46650;-81
2023/02/28 00:54:24;;;;;;;;;28.25;26.50;;;;;2.40;79.24;102246.56;5101970;27;45333;-81
2023/02/28 00:56:50;;;;;;;;;27.75;24.25;;;;;2.33;78.94;102253.06;5102314;27;45502;-81
2023/02/28 00:59:17;;;;;;;;;26.50;26.50;;;;;2.40;79.71;102264.94;5101140;27;45329;-82
2023/02/28 01:01:44;;;;;;;;;27.25;25.75;;;;;2.33;79.29;102258.31;5099944;27;47434;-80
2023/02/28 01:04:10;;;;;;;;;26.25;25.00;;;;;2.31;79.95;102260.19;5094855;27;45285;-81
2023/02/28 01:06:36;;;;;;;;;26.50;26.50;;;;;2.29;80.15;102261.19;5093412;27;45426;-80
2023/02/28 01:09:02;;;;;;;;;28.50;27.00;;;;;2.29;80.79;102262.03;5088221;27;46243;-81
2023/02/28 01:11:27;;;;;;;;;28.25;25.50;;;;;2.29;80.81;102258.56;5099913;27;46448;-80
2023/02/28 01:13:52;;;;;;;;;30.00;25.25;;;;;2.29;81.12;102256.78;5094630;27;45148;-80
2023/02/28 01:16:18;;;;;;;;;24.50;22.75;;;;;2.33;82.09;102265.38;5094765;27;45467;-80
2023/02/28 01:18:43;;;;;;;;;25.25;23.75;;;;;2.34;81.77;102273.13;5100007;27;46957;-81
2023/02/28 01:21:12;;;;;;;;;30.75;28.75;;;;;2.32;82.13;102259.25;5101015;27;45432;-80
2023/02/28 01:23:38;;;;;;;;;30.75;27.50;;;;;2.37;81.79;102272.97;5101322;27;45357;-81
2023/02/28 01:26:09;;;;;;;;;26.75;23.75;;;;;2.39;81.50;102273.75;5100066;27;45396;-81
2023/02/28 01:28:35;;;;;;;;;26.25;23.00;;;;;2.39;81.59;102270.25;5101194;27;45554;-80
2023/02/28 01:31:01;;;;;;;;;28.25;26.00;;;;;2.42;81.72;102282.41;5100954;27;45355;-80
2023/02/28 01:33:26;;;;;;;;;22.00;20.50;;;;;2.35;81.96;102274.84;5101260;27;45646;-80
2023/02/28 01:36:04;;;;;;;;;27.75;23.25;;;;;2.36;81.79;102267.78;5101256;27;45354;-80
2023/02/28 01:38:30;;;;;;;;;28.25;25.75;;;;;2.42;81.88;102280.59;5101275;27;46012;-80
2023/02/28 01:40:56;;;;;;;;;26.00;24.50;;;;;2.38;82.27;102276.44;5100767;27;46054;-80
2023/02/28 01:43:23;;;;;;;;;32.25;23.50;;;;;2.39;82.28;102271.13;5101113;27;45161;-81
2023/02/28 01:45:49;;;;;;;;;26.00;22.50;;;;;2.33;82.01;102274.06;5100590;27;45339;-80
2023/02/28 01:48:15;;;;;;;;;28.75;26.75;;;;;2.30;82.85;102263.72;5099431;27;46055;-80
2023/02/28 01:50:45;;;;;;;;;24.75;24.50;;;;;2.34;83.19;102264.44;5100494;27;45434;-80
2023/02/28 01:53:15;;;;;;;;;29.50;28.00;;;;;2.36;83.09;102263.41;5091789;27;45241;-80
2023/02/28 01:55:46;;;;;;;;;31.50;30.00;;;;;2.40;83.69;102272.81;5097352;27;45424;-80
2023/02/28 01:58:12;;;;;;;;;24.50;24.50;;;;;2.33;83.34;102265.38;5100753;27;45250;-80
2023/02/28 02:00:38;;;;;;;;;26.25;24.75;;;;;2.34;83.39;102273.13;5098561;27;46793;-80
2023/02/28 02:03:10;;;;;;;;;32.50;28.50;;;;;2.38;83.59;102272.06;5100822;27;45314;-80
2023/02/28 02:05:37;;;;;;;;;26.25;26.25;;;;;2.33;83.41;102266.19;5099164;27;45458;-80
2023/02/28 02:08:16;;;;;;;;;22.00;22.00;;;;;2.35;84.05;102266.97;5079108;27;47554;-80
2023/02/28 02:10:47;;;;;;;;;32.25;28.25;;;;;2.33;84.29;102257.50;5085969;27;46221;-80
2023/02/28 02:13:16;;;;;;;;;29.50;23.50;;;;;2.33;84.01;102258.31;5100412;27;45370;-81
2023/02/28 02:15:52;;;;;;;;;23.00;22.50;;;;;2.37;84.71;102259.84;5095691;27;45429;-80
2023/02/28 02:18:26;;;;;;;;;28.00;26.00;;;;;2.33;84.62;102255.69;5096310;27;45344;-80
2023/02/28 02:21:25;;;;;;;;;24.50;24.25;;;;;2.30;84.67;102255.84;5098819;27;47582;-79
2023/02/28 02:24:21;;;;;;;;;27.00;27.00;;;;;2.32;84.50;102264.50;5100655;27;45269;-80
2023/02/28 02:26:58;;;;;;;;;26.25;26.00;;;;;2.25;85.21;102250.03;5095259;27;45636;-79
2023/02/28 02:29:52;;;;;;;;;28.75;26.75;;;;;2.33;85.38;102263.56;5093251;27;45248;-81
2023/02/28 02:33:05;;;;;;;;;29.75;26.75;;;;;2.35;85.41;102256.47;5100014;27;45347;-80
2023/02/28 02:36:08;;;;;;;;;31.25;29.50;;;;;2.37;85.00;102253.78;5063029;27;45378;-80
2023/02/28 02:38:46;;;;;;;;;31.25;27.75;;;;;2.37;84.23;102251.97;5112615;27;45354;-79
2023/02/28 02:41:33;;;;;;;;;25.75;23.50;;;;;2.37;85.45;102241.47;5095094;27;46721;-79
2023/02/28 02:44:14;;;;;;;;;28.00;25.00;;;;;2.39;84.85;102244.00;5100037;27;45698;-79
2023/02/28 02:46:43;;;;;;;;;25.25;24.25;;;;;2.33;84.57;102236.50;5107332;27;45343;-80
2023/02/28 02:49:15;;;;;;;;;30.75;28.25;;;;;2.35;84.42;102239.88;5094955;27;45467;-79
2023/02/28 02:51:42;;;;;;;;;27.50;24.50;;;;;2.34;84.82;102239.00;5099973;27;45578;-80
2023/02/28 02:54:15;;;;;;;;;30.25;26.50;;;;;2.39;84.74;102242.25;5099430;27;45531;-79
2023/02/28 02:56:44;;;;;;;;;22.75;21.00;;;;;2.38;84.81;102239.72;5099902;27;45341;-80
2023/02/28 02:59:13;;;;;;;;;27.25;27.25;;;;;2.36;84.55;102236.31;5098408;27;45479;-80
2023/02/28 03:01:40;;;;;;;;;25.50;24.25;;;;;2.40;84.88;102249.19;5098357;27;45477;-80
2023/02/28 03:04:11;;;;;;;;;26.75;24.75;;;;;2.39;84.58;102244.88;5099334;27;46381;-80
2023/02/28 03:06:37;;;;;;;;;23.75;22.25;;;;;2.35;85.25;102237.25;5099924;27;45394;-79
2023/02/28 03:09:04;;;;;;;;;26.75;26.00;;;;;2.39;84.93;102251.88;5099569;27;45536;-79
2023/02/28 03:11:30;;;;;;;;;27.50;24.75;;;;;2.38;84.57;102247.59;5099632;27;45258;-79
2023/02/28 03:14:27;;;;;;;;;27.00;26.25;;;;;2.29;84.33;102248.94;5099325;27;45414;-80
2023/02/28 03:17:13;;;;;;;;;24.50;24.50;;;;;2.30;83.80;102245.38;5096932;27;45397;-79
2023/02/28 03:20:17;;;;;;;;;28.00;25.00;;;;;2.23;84.22;102244.00;5099689;27;45444;-79
2023/02/28 03:22:56;;;;;;;;;25.25;23.25;;;;;2.19;84.65;102252.97;5102278;27;45428;-80
2023/02/28 03:25:50;;;;;;;;;32.50;30.25;;;;;2.14;84.74;102251.44;5103213;27;45351;-80
2023/02/28 03:28:49;;;;;;;;;24.00;21.75;;;;;2.01;84.15;102232.03;5088139;27;45409;-79
2023/02/28 03:31:41;;;;;;;;;29.00;25.50;;;;;2.04;84.59;102249.38;5085037;27;45363;-79
2023/02/28 03:34:34;;;;;;;;;24.00;21.75;;;;;1.93;85.24;102244.69;5102796;27;45314;-78
2023/02/28 03:37:05;;;;;;;;;23.75;21.75;;;;;1.96;85.37;102250.63;5098014;27;47369;-79
2023/02/28 03:39:39;;;;;;;;;22.75;22.75;;;;;1.94;85.17;102251.66;5097493;27;45253;-79
2023/02/28 03:42:12;;;;;;;;;26.75;24.50;;;;;1.89;84.83;102254.50;5101881;27;45410;-80
2023/02/28 03:44:46;;;;;;;;;27.75;25.50;;;;;1.89;85.47;102250.09;5118162;27;46283;-80
2023/02/28 03:47:17;;;;;;;;;21.25;18.25;;;;;1.92;85.05;102254.34;5102404;27;46208;-80
2023/02/28 03:49:55;;;;;;;;;19.25;16.75;;;;;1.80;84.89;102242.72;5101383;27;45228;-80
2023/02/28 03:52:24;;;;;;;;;22.25;19.50;;;;;1.81;84.53;102254.03;5099521;27;45464;-80
2023/02/28 03:54:54;;;;;;;;;21.50;21.25;;;;;1.72;84.99;102255.38;5102760;27;45339;-80
2023/02/28 03:57:57;;;;;;;;;22.75;18.75;;;;;1.67;85.04;102249.53;5099604;27;45579;-80
2023/02/28 04:00:48;;;;;;;;;27.00;22.00;;;;;1.63;85.28;102244.44;5096793;27;45242;-80
2023/02/28 04:03:14;;;;;;;;;22.25;22.25;;;;;1.58;85.34;102249.06;5102818;27;45335;-79
2023/02/28 04:05:51;;;;;;;;;24.75;22.75;;;;;1.55;86.21;102243.97;5102385;27;45422;-79
2023/02/28 04:08:16;;;;;;;;;20.75;19.25;;;;;1.53;85.35;102237.97;5101091;27;47153;-79
2023/02/28 04:10:48;;;;;;;;;26.50;22.00;;;;;1.54;85.58;102246.66;5101945;27;45234;-79
2023/02/28 04:13:13;;;;;;;;;20.25;17.25;;;;;1.59;85.28;102261.22;5102667;27;45341;-79
2023/02/28 04:15:38;;;;;;;;;21.75;21.75;;;;;1.54;85.33;102254.53;5100600;27;46521;-79
2023/02/28 04:18:04;;;;;;;;;20.25;20.25;;;;;1.57;85.26;102262.22;5100903;27;47326;-78
2023/02/28 04:20:29;;;;;;;;;23.75;23.75;;;;;1.48;85.38;102255.69;5118357;27;45279;-79
2023/02/28 04:22:54;;;;;;;;;6.25;6.25;;;;;1.40;85.27;102260.47;5118593;27;45242;-79
2023/02/28 04:25:19;;;;;;;;;20.00;19.00;;;;;1.24;85.87;102242.88;5100709;27;46464;-79
2023/02/28 04:27:45;;;;;;;;;18.00;16.25;;;;;1.36;85.70;102263.25;5102363;27;45334;-79
2023/02/28 04:30:11;;;;;;;;;23.75;21.75;;;;;1.35;86.18;102273.81;5101882;27;45191;-80
2023/02/28 04:32:36;;;;;;;;;21.00;20.75;;;;;1.35;86.18;102265.94;5101579;27;45387;-79
2023/02/28 04:35:02;;;;;;;;;16.50;14.25;;;;;1.32;85.94;102261.69;5101518;27;45411;-80
2023/02/28 04:37:28;;;;;;;;;20.75;15.75;;;;;1.36;85.31;102262.38;5100807;27;47997;-80
2023/02/28 04:39:54;;;;;;;;;20.00;18.25;;;;;1.36;85.76;102263.25;5097399;27;45939;-79
2023/02/28 04:42:20;;;;;;;;;16.75;15.25;;;;;1.39;85.68;102275.34;5094773;27;45365;-79
2023/02/28 04:44:45;;;;;;;;;25.75;22.00;;;;;1.40;85.34;102270.97;5101896;27;45401;-79
2023/02/28 04:47:10;;;;;;;;;22.00;20.00;;;;;1.33;85.16;102276.50;5101711;27;45434;-80
2023/02/28 04:49:36;;;;;;;;;21.50;21.00;;;;;1.25;85.15;102261.16;5100713;27;45353;-80
2023/02/28 04:52:01;;;;;;;;;17.75;17.75;;;;;1.24;85.12;102264.69;5100869;27;45560;-80
2023/02/28 04:54:28;;;;;;;;;20.75;19.00;;;;;1.28;85.53;102265.38;5096658;27;46493;-80
2023/02/28 04:56:54;;;;;;;;;17.25;13.75;;;;;1.18;85.12;102267.63;5090817;27;45404;-81
2023/02/28 04:59:20;;;;;;;;;23.00;20.25;;;;;1.20;85.26;102276.22;5099967;27;45911;-80
2023/02/28 05:01:48;;;;;;;;;16.75;16.75;;;;;1.23;84.99;102285.72;5097058;27;45254;-80
2023/02/28 05:04:14;;;;;;;;;21.75;20.25;;;;;1.20;85.36;102278.00;5101145;27;45611;-80
2023/02/28 05:06:39;;;;;;;;;18.50;17.00;;;;;0.99;85.54;102259.81;5100071;27;47305;-80
2023/02/28 05:09:04;;;;;;;;;16.75;15.50;;;;;1.05;85.65;102277.81;5096825;27;45377;-80
2023/02/28 05:11:37;;;;;;;;;19.25;18.25;;;;;1.07;85.88;102288.22;5094195;27;45301;-80
2023/02/28 05:14:04;;;;;;;;;13.75;13.75;;;;;1.03;85.11;102282.28;5087921;27;45542;-80
2023/02/28 05:16:30;;;;;;;;;17.25;17.25;;;;;1.04;85.46;102291.00;5100739;27;46381;-79
2023/02/28 05:18:56;;;;;;;;;15.75;13.75;;;;;0.97;85.70;102288.69;5100476;27;45554;-80
2023/02/28 05:21:32;;;;;;;;;17.75;17.75;;;;;0.98;85.73;102292.13;5097137;27;45290;-79
2023/02/28 05:23:59;;;;;;;;;20.50;20.00;;;;;0.92;86.04;102282.78;5099986;27;46211;-80
2023/02/28 05:26:26;;;;;;;;;15.75;14.25;;;;;0.91;86.13;102288.97;5101195;27;45355;-80
2023/02/28 05:28:51;;;;;;;;;17.50;13.25;;;;;0.89;86.83;102298.66;5099916;27;45341;-80
2023/02/28 05:31:17;;;;;;;;;18.50;16.25;;;;;0.85;86.68;102292.72;5100979;27;45468;-80
2023/02/28 05:33:42;;;;;;;;;19.75;18.50;;;;;0.84;86.66;102293.63;5099846;27;46068;-80
2023/02/28 05:36:07;;;;;;;;;17.25;17.00;;;;;0.87;86.40;102305.75;5100559;27;46159;-79
2023/02/28 05:38:33;;;;;;;;;16.25;15.75;;;;;0.90;86.19;102312.59;5101325;27;45372;-79
2023/02/28 05:40:58;;;;;;;;;22.50;20.00;;;;;0.88;86.66;102299.59;5100830;27;45222;-79
2023/02/28 05:43:24;;;;;;;;;21.50;18.75;;;;;0.87;86.42;102305.75;5100927;27;45361;-80
2023/02/28 05:45:49;;;;;;;;;14.25;13.50;;;;;0.85;86.08;102308.44;5099195;27;47254;-80
2023/02/28 05:48:15;;;;;;;;;23.00;19.75;;;;;0.80;85.58;102310.41;5116895;27;45269;-80
2023/02/28 05:50:42;;;;;;;;;17.00;17.00;;;;;0.75;86.07;102304.53;5100987;27;45361;-79
2023/02/28 05:53:07;;;;;;;;;15.75;12.50;;;;;0.72;85.88;102308.13;5100898;27;45504;-79
2023/02/28 05:55:33;;;;;;;;;20.50;16.00;;;;;0.69;85.88;102307.44;5099124;27;47433;-80
2023/02/28 05:57:58;;;;;;;;;20.50;17.25;;;;;0.69;86.90;102317.91;5100517;27;45467;-79
2023/02/28 06:00:24;;;;;;;;;19.75;19.00;;;;;0.71;86.84;102324.75;5100700;27;45305;-79
2023/02/28 06:02:51;;;;;;;;;25.25;24.00;;;;;0.66;87.52;102321.50;5099292;27;47321;-79
2023/02/28 06:05:17;;;;;;;;;46.00;40.00;;;;;0.68;87.97;102324.03;5098950;27;47380;-79
2023/02/28 06:07:43;;;;;;;;;50.00;43.25;;;;;0.67;87.46;102324.97;5099726;27;45381;-81
2023/02/28 06:10:10;;;;;;;;;36.25;33.00;;;;;0.70;87.68;102327.44;5099919;27;45345;-79
2023/02/28 06:12:37;;;;;;;;;51.00;44.00;;;;;0.74;87.78;102318.53;5092316;27;45503;-80
2023/02/28 06:15:03;;;;;;;;;52.75;46.00;;;;;0.77;88.15;102331.47;5100437;27;46436;-79
2023/02/28 06:17:28;;;;;;;;;69.50;54.50;;;;;0.75;87.72;102321.09;5100473;27;45336;-79
2023/02/28 06:19:53;;;;;;;;;74.50;58.50;;;;;0.75;88.29;102321.09;5099099;27;45510;-79
2023/02/28 06:22:19;;;;;;;;;77.50;62.00;;;;;0.79;88.37;102327.03;5100374;27;45292;-80
2023/02/28 06:24:44;;;;;;;;;58.50;49.25;;;;;0.74;88.53;102319.41;5100339;27;45399;-78
2023/02/28 06:27:09;;;;;;;;;40.50;39.75;;;;;0.75;88.34;102322.88;5099204;27;45606;-78
2023/02/28 06:29:35;;;;;;;;;45.00;41.50;;;;;0.71;87.91;102331.75;5099949;27;45227;-84
2023/02/28 06:32:02;;;;;;;;;64.50;50.75;;;;;0.70;89.29;102316.97;5098883;27;46370;-80
2023/02/28 06:34:27;;;;;;;;;53.00;46.00;;;;;0.78;90.12;102320.09;5096637;27;48281;-81
2023/02/28 06:36:53;;;;;;;;;37.00;32.00;;;;;0.81;90.51;102316.50;5099958;27;45290;-78
2023/02/28 06:39:19;;;;;;;;;36.00;34.00;;;;;0.80;90.72;102313.03;5097970;27;45491;-79
2023/02/28 06:41:45;;;;;;;;;40.25;37.50;;;;;0.89;90.82;102327.44;5099201;27;45906;-80
2023/02/28 06:44:16;;;;;;;;;46.75;37.75;;;;;0.94;90.80;102324.63;5098051;27;45696;-82
2023/02/28 06:46:44;;;;;;;;;39.00;33.75;;;;;0.97;91.13;102329.72;5088358;27;45289;-85
2023/02/28 06:49:10;;;;;;;;;33.75;32.75;;;;;0.99;90.50;102325.28;5099240;27;45556;-85
2023/02/28 06:51:39;;;;;;;;;35.25;31.25;;;;;1.00;91.40;102324.34;5099986;27;45462;-81
2023/02/28 06:54:05;;;;;;;;;31.50;31.50;;;;;1.00;90.42;102325.19;5098663;27;48814;-83
2023/02/28 06:56:31;;;;;;;;;50.00;40.75;;;;;0.97;89.90;102319.25;5086015;27;45410;-81
2023/02/28 06:58:56;;;;;;;;;62.00;51.50;;;;;0.97;90.35;102317.47;5085072;27;45213;-80
2023/02/28 07:01:23;;;;;;;;;62.50;49.75;;;;;1.02;90.35;102330.38;5099435;27;45284;-79
2023/02/28 07:03:51;;;;;;;;;74.25;56.00;;;;;1.02;90.51;102334.75;5099482;27;45519;-78
2023/02/28 07:06:18;;;;;;;;;59.75;49.00;;;;;0.97;90.81;102325.34;5099033;27;45537;-78
2023/02/28 07:08:43;;;;;;;;;57.00;47.50;;;;;1.00;90.78;102333.06;5100059;27;45339;-79
2023/02/28 07:11:08;;;;;;;;;53.50;46.75;;;;;0.96;91.70;102322.78;5099434;27;45353;-78
2023/02/28 07:13:33;;;;;;;;;70.50;57.00;;;;;1.06;91.80;102334.53;5099597;27;45298;-78
2023/02/28 07:16:03;;;;;;;;;61.50;48.00;;;;;1.11;91.37;102342.16;5099126;27;45603;-78
2023/02/28 07:18:29;;;;;;;;;49.25;43.50;;;;;1.08;90.83;102332.66;5099679;27;45423;-79
2023/02/28 07:20:54;;;;;;;;;47.75;42.00;;;;;1.10;90.97;102343.94;5099316;27;45292;-78
2023/02/28 07:23:21;;;;;;;;;36.75;35.75;;;;;1.12;91.16;102344.72;5098220;27;47894;-78
2023/02/28 07:25:46;;;;;;;;;38.50;36.50;;;;;1.13;91.16;102351.66;5089230;27;45350;-79
2023/02/28 07:28:13;;;;;;;;;45.25;39.50;;;;;1.12;91.10;102341.25;5095959;27;45327;-78
2023/02/28 07:30:39;;;;;;;;;39.25;38.50;;;;;1.16;91.12;102341.97;5097651;27;46192;-79
2023/02/28 07:33:04;;;;;;;;;45.00;40.50;;;;;1.13;91.75;102335.06;5097746;27;48233;-78
2023/02/28 07:35:30;;;;;;;;;42.00;39.50;;;;;1.17;92.51;102346.25;5098250;27;45390;-78
2023/02/28 07:37:58;;;;;;;;;45.75;39.75;;;;;1.21;92.90;102347.81;5099259;27;45415;-79
2023/02/28 07:40:23;;;;;;;;;42.25;39.50;;;;;1.23;92.44;102343.38;5098057;27;45953;-79
2023/02/28 07:42:48;;;;;;;;;46.25;41.75;;;;;1.30;92.48;102346.53;5094877;27;47363;-80
2023/02/28 07:45:14;;;;;;;;;47.75;42.50;;;;;1.34;92.56;102355.94;5095775;27;45370;-77
2023/02/28 07:47:41;;;;;;;;;59.75;49.75;;;;;1.41;92.89;102354.72;5099141;27;45336;-78
2023/02/28 07:50:09;;;;;;;;;56.00;47.50;;;;;1.46;92.28;102357.09;5082776;27;47232;-79
2023/02/28 07:52:36;;;;;;;;;72.50;59.25;;;;;1.48;93.32;102355.28;5096290;27;46408;-78
2023/02/28 07:55:02;;;;;;;;;59.75;48.50;;;;;1.54;93.67;102361.97;5082594;27;45356;-79
2023/02/28 07:57:27;;;;;;;;;51.75;45.50;;;;;1.60;93.68;102354.69;5097804;27;45535;-78
2023/02/28 07:59:53;;;;;;;;;60.75;48.50;;;;;1.64;93.45;102350.97;5099039;27;45291;-79
2023/02/28 08:02:18;;;;;;;;;77.00;60.50;;;;;1.67;93.59;102352.59;5098549;27;47775;-81
2023/02/28 08:04:45;;;;;;;;;70.75;57.00;;;;;1.75;94.87;102358.31;5084078;27;45410;-80
2023/02/28 08:07:12;;;;;;;;;63.00;52.00;;;;;1.86;94.91;102356.94;5095086;27;45298;-79
2023/02/28 08:09:39;;;;;;;;;52.00;46.00;;;;;1.94;94.79;102352.13;5097922;27;47082;-79
2023/02/28 08:12:04;;;;;;;;;59.50;45.25;;;;;2.01;95.03;102356.13;5089864;27;45355;-77
2023/02/28 08:14:30;;;;;;;;;48.00;43.00;;;;;2.06;94.67;102358.53;5102443;27;45469;-78
2023/02/28 08:16:55;;;;;;;;;80.50;61.50;;;;;2.16;94.11;102366.81;5102498;27;45388;-78
2023/02/28 08:19:20;;;;;;;;;68.00;55.50;;;;;2.21;94.81;102363.94;5118138;27;47123;-78
2023/02/28 08:21:46;;;;;;;;;79.75;63.25;;;;;2.25;94.93;102365.47;5100904;27;47302;-78
2023/02/28 08:24:11;;;;;;;;;75.25;60.75;;;;;2.28;94.62;102357.44;5102638;27;45313;-78
2023/02/28 08:26:36;;;;;;;;;65.25;52.50;;;;;2.37;94.65;102359.56;5102455;27;45334;-80
2023/02/28 08:29:02;;;;;;;;;70.25;57.00;;;;;2.45;94.03;102359.16;5094815;27;45336;-78
2023/02/28 08:31:27;;;;;;;;;47.00;41.00;;;;;2.51;94.53;102364.09;5091367;27;45513;-79
2023/02/28 08:33:54;;;;;;;;;49.75;44.00;;;;;2.52;95.25;102357.09;5085160;27;45263;-79
2023/02/28 08:36:20;;;;;;;;;52.00;46.50;;;;;2.65;93.68;102375.66;5088448;27;45433;-79
2023/02/28 08:38:45;;;;;;;;;47.00;42.50;;;;;2.64;94.08;102372.16;5096276;27;45334;-77
2023/02/28 08:41:12;;;;;;;;;46.25;42.00;;;;;2.74;93.19;102383.03;5102048;27;46299;-78
2023/02/28 08:43:39;;;;;;;;;98.33;90.67;;;;;2.76;94.24;102380.34;5088405;27;45251;-81
2023/02/28 08:46:05;;;;;;;;;93.50;76.50;;;;;2.84;93.62;102372.88;5101134;27;45282;-84
2023/02/28 08:48:33;;;;;;;;;49.75;43.50;;;;;2.93;92.91;102368.91;5107976;27;45441;-81
2023/02/28 08:51:05;;;;;;;;;53.75;43.00;;;;;2.97;92.96;102372.22;5104179;27;46395;-81
2023/02/28 08:53:31;;;;;;;;;40.25;37.75;;;;;2.99;92.74;102359.88;5108229;27;45354;-82
2023/02/28 08:56:13;;;;;;;;;47.75;41.50;;;;;3.00;91.93;102361.56;5112509;27;45218;-79
2023/02/28 08:58:40;;;;;;;;;52.50;43.75;;;;;3.05;92.09;102359.50;5113742;27;44819;-78
2023/02/28 09:01:15;;;;;;;;;47.00;41.50;;;;;3.09;91.68;102355.81;5112447;27;46975;-79
2023/02/28 09:03:41;;;;;;;;;54.25;46.50;;;;;3.22;92.66;102371.72;5114151;27;44668;-79
2023/02/28 09:06:08;;;;;;;;;55.50;44.75;;;;;3.27;91.17;102360.97;5111963;27;44695;-78
2023/02/28 09:08:34;;;;;;;;;48.50;43.75;;;;;3.32;90.86;102353.66;5112871;27;45711;-78
2023/02/28 09:11:01;;;;;;;;;45.25;40.50;;;;;3.39;90.88;102367.31;5112833;27;47008;-79
2023/02/28 09:13:27;;;;;;;;;33.25;33.25;;;;;3.41;91.13;102352.28;5105910;27;45408;-79
2023/02/28 09:15:53;;;;;;;;;43.50;39.75;;;;;3.43;91.00;102352.19;5100085;27;45366;-84
2023/02/28 09:18:18;;;;;;;;;49.75;42.50;;;;;3.54;91.92;102355.91;5101878;27;45381;-83
2023/02/28 09:20:44;;;;;;;;;42.75;39.00;;;;;3.65;93.04;102357.06;5101235;27;46357;-80
2023/02/28 09:23:11;;;;;;;;;46.00;41.25;;;;;3.71;92.95;102353.25;5100355;27;45367;-83
2023/02/28 09:25:37;;;;;;;;;46.25;40.25;;;;;3.81;91.15;102364.06;5100703;27;45488;-81
2023/02/28 09:28:03;;;;;;;;;42.50;39.50;;;;;3.86;89.87;102368.13;5099942;27;47219;-81
2023/02/28 09:30:30;;;;;;;;;38.00;35.75;;;;;3.92;90.54;102359.88;5099760;27;47446;-81
2023/02/28 09:32:55;;;;;;;;;34.50;33.00;;;;;3.99;89.39;102357.75;5100978;27;45274;-79
2023/02/28 09:35:22;;;;;;;;;37.25;34.75;;;;;4.04;88.29;102358.31;5099979;27;45499;-79
2023/02/28 09:37:48;;;;;;;;;42.00;37.25;;;;;4.08;87.61;102355.50;5101035;27;45529;-79
2023/02/28 09:40:17;;;;;;;;;41.00;35.75;;;;;4.12;86.84;102363.13;5091885;27;45398;-80
2023/02/28 09:42:42;;;;;;;;;34.50;33.50;;;;;4.17;86.20;102353.16;5097400;27;45272;-81
2023/02/28 09:45:39;;;;;;;;;64.75;54.00;;;;;4.31;85.65;102362.00;5101206;27;45272;-80
2023/02/28 09:48:20;;;;;;;;;61.75;51.50;;;;;4.37;87.00;102359.00;5097301;27;46199;-83
2023/02/28 09:51:04;;;;;;;;;52.50;40.75;;;;;4.40;84.83;102350.91;5087285;27;45693;-80
2023/02/28 09:53:38;;;;;;;;;67.25;51.50;;;;;4.49;83.49;102356.56;5080015;27;45390;-79
2023/02/28 09:56:25;;;;;;;;;81.75;62.75;;;;;4.59;83.56;102360.34;5089774;27;46009;-80
2023/02/28 09:58:59;;;;;;;;;88.50;67.00;;;;;4.77;81.72;102354.84;5090464;27;45959;-82
2023/02/28 10:01:30;;;;;;;;;59.75;48.50;;;;;4.84;80.81;102350.88;5095207;27;46489;-80
2023/02/28 10:04:08;;;;;;;;;54.50;44.50;;;;;5.00;78.42;102355.19;5092214;27;45494;-81
2023/02/28 10:06:46;;;;;;;;;85.25;67.25;;;;;5.10;78.48;102350.19;5099439;27;45381;-79
2023/02/28 10:09:20;;;;;;;;;33.75;32.00;;;;;5.15;74.58;102341.03;5100303;27;45298;-80
2023/02/28 10:11:46;;;;;;;;;32.25;31.75;;;;;5.25;74.55;102343.94;5089957;27;46272;-83
2023/02/28 10:14:38;;;;;;;;;34.00;29.75;;;;;5.35;74.54;102338.88;5098093;27;45318;-82
2023/02/28 10:17:13;;;;;;;;;55.25;43.75;;;;;5.46;74.72;102337.34;5099744;27;45760;-84
2023/02/28 10:19:49;;;;;;;;;28.75;26.00;;;;;5.54;70.57;102338.50;5102776;27;45387;-82
2023/02/28 10:22:20;;;;;;;;;20.50;20.50;;;;;5.55;67.92;102334.09;5101861;27;46316;-82
2023/02/28 10:24:48;;;;;;;;;69.75;55.75;;;;;5.62;68.96;102323.97;5100013;27;45858;-82
2023/02/28 10:27:22;;;;;;;;;63.50;50.75;;;;;5.66;68.30;102323.66;5092494;27;45606;-81
2023/02/28 10:29:56;;;;;;;;;77.00;60.50;;;;;5.71;68.09;102325.19;5097149;27;45792;-80
2023/02/28 10:32:33;;;;;;;;;87.25;70.25;;;;;5.78;65.36;102331.72;5099383;27;45361;-81
2023/02/28 10:35:07;;;;;;;;;57.25;43.00;;;;;5.78;66.62;102324.63;5098569;27;45350;-81
2023/02/28 10:37:37;;;;;;;;;21.50;17.75;;;;;5.79;64.08;102320.22;5099260;27;45295;-83
2023/02/28 10:40:05;;;;;;;;;19.25;17.50;;;;;5.80;64.65;102317.47;5099368;27;45673;-80
2023/02/28 10:42:31;;;;;;;;;19.25;16.00;;;;;5.85;64.13;102322.44;5100172;27;45566;-81
2023/02/28 10:45:13;;;;;;;;;20.00;19.50;;;;;5.84;62.88;102318.13;5100067;27;45299;-81
2023/02/28 10:47:57;;;;;;;;;24.50;22.00;;;;;5.77;62.54;102304.47;5099762;27;45289;-81
2023/02/28 10:50:41;;;;;;;;;29.50;28.50;;;;;5.84;62.76;102304.94;5099505;27;45240;-80
2023/02/28 10:53:09;;;;;;;;;30.50;25.50;;;;;5.88;63.24;102303.75;5078569;27;46433;-81
2023/02/28 10:55:35;;;;;;;;;24.00;22.75;;;;;5.88;61.75;102295.84;5084764;27;45168;-81
2023/02/28 10:58:00;;;;;;;;;27.00;27.00;;;;;5.92;60.23;102304.38;5087660;27;45523;-82
2023/02/28 11:00:34;;;;;;;;;79.75;60.25;;;;;5.87;60.40;102280.13;5092636;27;45426;-80
2023/02/28 11:03:00;;;;;;;;;26.50;25.75;;;;;6.03;60.68;102291.31;5093235;27;46392;-79
2023/02/28 11:05:27;;;;;;;;;19.25;19.25;;;;;6.23;60.87;102296.19;5097981;27;46176;-81
2023/02/28 11:08:14;;;;;;;;;14.33;14.00;;;;;6.46;58.54;102277.88;5099425;27;45315;-80
2023/02/28 11:10:46;;;;;;;;;14.00;14.00;;;;;6.66;56.90;102279.94;5086327;27;45364;-83
2023/02/28 11:13:20;;;;;;;;;14.00;13.25;;;;;6.89;56.70;102287.97;5097508;27;48283;-80
2023/02/28 11:15:58;;;;;;;;;53.25;42.50;;;;;7.05;57.56;102285.09;5099256;27;45484;-83
2023/02/28 11:18:30;;;;;;;;;42.75;37.50;;;;;7.23;57.46;102279.38;5096974;27;45417;-82
2023/02/28 11:20:58;;;;;;;;;63.75;48.50;;;;;7.29;55.54;102280.72;5096597;27;45799;-84
2023/02/28 11:23:28;;;;;;;;;19.00;18.00;;;;;7.28;54.27;102271.94;5083882;27;45357;-83
2023/02/28 11:25:59;;;;;;;;;18.25;15.25;;;;;7.30;53.67;102279.75;5099206;27;45293;-82
2023/02/28 11:28:34;;;;;;;;;26.75;24.50;;;;;7.31;52.11;102260.31;5097661;27;45346;-80